createdAt,value
2017-10-18T00:04:27.554Z,22
2017-10-18T00:14:27.477Z,18
2017-10-18T00:24:27.436Z,16
2017-10-18T00:34:27.459Z,17
2017-10-18T00:44:27.432Z,17
2017-10-18T00:54:27.593Z,17
2017-10-18T01:04:27.509Z,17
2017-10-18T01:14:28.495Z,17
2017-10-18T01:24:27.495Z,18
2017-10-18T01:34:27.461Z,19
2017-10-18T01:44:27.457Z,19
2017-10-18T01:54:27.525Z,17
2017-10-18T02:04:27.444Z,18
2017-10-18T02:14:27.509Z,17
2017-10-18T02:24:27.512Z,17
2017-10-18T02:34:27.429Z,16
2017-10-18T02:44:27.477Z,16
2017-10-18T02:54:27.460Z,16
2017-10-18T03:04:27.378Z,14
2017-10-18T03:14:27.440Z,14
2017-10-18T03:24:27.441Z,15
2017-10-18T03:34:27.528Z,16
2017-10-18T03:44:27.527Z,14
2017-10-18T03:54:27.407Z,16
2017-10-18T04:04:27.521Z,14
2017-10-18T04:14:27.485Z,15
2017-10-18T04:24:27.412Z,15
2017-10-18T04:34:27.478Z,14
2017-10-18T04:44:27.441Z,18
2017-10-18T04:54:27.457Z,16
2017-10-18T05:04:27.423Z,19
2017-10-18T05:14:27.429Z,20
2017-10-18T05:24:27.687Z,25
2017-10-18T05:34:27.621Z,26
2017-10-18T05:44:28.614Z,28
2017-10-18T05:54:27.380Z,31
2017-10-18T06:04:27.389Z,33
2017-10-18T06:14:27.410Z,33
2017-10-18T06:24:27.385Z,31
2017-10-18T06:34:27.336Z,32
2017-10-18T06:44:27.343Z,35
2017-10-18T06:54:27.359Z,41
2017-10-18T07:04:27.376Z,43
2017-10-18T07:14:27.353Z,39
2017-10-18T07:24:27.383Z,39
2017-10-18T07:34:28.637Z,37
2017-10-18T07:44:27.454Z,35
2017-10-18T07:54:27.342Z,34
2017-10-18T08:04:27.343Z,38
2017-10-18T08:14:27.333Z,36
2017-10-18T08:24:27.794Z,39
2017-10-18T08:34:28.182Z,37
2017-10-18T08:44:27.499Z,35
2017-10-18T08:54:27.385Z,34
2017-10-18T09:04:27.342Z,36
2017-10-18T09:14:27.368Z,32
2017-10-18T09:24:27.394Z,35
2017-10-18T09:34:27.394Z,36
2017-10-18T09:44:27.399Z,36
2017-10-18T09:54:27.398Z,35
2017-10-18T10:04:27.390Z,36
2017-10-18T10:14:27.363Z,34
2017-10-18T10:24:27.388Z,37
2017-10-18T10:34:27.365Z,37
2017-10-18T10:44:27.356Z,36
2017-10-18T10:54:27.621Z,31
2017-10-18T11:04:27.502Z,26
2017-10-18T11:14:27.548Z,23
2017-10-18T11:24:27.518Z,24
2017-10-18T11:34:27.550Z,22
2017-10-18T11:44:27.595Z,19
2017-10-18T11:54:27.608Z,22
2017-10-18T12:04:27.490Z,20
2017-10-18T12:14:27.769Z,23
2017-10-18T12:24:27.538Z,21
2017-10-18T12:34:27.557Z,18
2017-10-18T12:44:27.560Z,19
2017-10-18T12:54:27.546Z,21
2017-10-18T13:04:27.550Z,19
2017-10-18T13:14:27.522Z,17
2017-10-18T13:24:27.524Z,17
2017-10-18T13:34:27.576Z,18
2017-10-18T13:44:27.765Z,18
2017-10-18T13:54:27.625Z,19
2017-10-18T14:04:27.541Z,19
2017-10-18T14:14:27.563Z,21
2017-10-18T14:24:27.587Z,18
2017-10-18T14:34:27.697Z,20
2017-10-18T14:44:27.590Z,20
2017-10-18T14:54:27.644Z,20
2017-10-18T15:04:27.726Z,21
2017-10-18T15:14:27.738Z,21
2017-10-18T15:24:27.573Z,21
2017-10-18T15:34:27.599Z,21
2017-10-18T15:44:27.592Z,22
2017-10-18T15:54:27.669Z,24
2017-10-18T16:04:27.834Z,23
2017-10-18T16:14:27.630Z,22
2017-10-18T16:24:27.631Z,27
2017-10-18T16:34:27.663Z,23
2017-10-18T16:44:27.744Z,22
2017-10-18T16:54:28.003Z,26
2017-10-18T17:04:27.687Z,24
2017-10-18T17:14:37.045Z,25
2017-10-18T17:24:31.962Z,30
2017-10-18T17:34:27.647Z,27
2017-10-18T17:44:31.424Z,29
2017-10-18T17:54:38.377Z,30
2017-10-18T18:04:28.738Z,36
2017-10-18T18:14:27.778Z,35
2017-10-18T18:24:35.491Z,35
2017-10-18T18:34:32.452Z,34
2017-10-18T18:44:32.290Z,32
2017-10-18T18:54:28.786Z,32
2017-10-18T19:04:39.586Z,38
2017-10-18T19:14:38.757Z,39
2017-10-18T19:24:35.712Z,36
2017-10-18T19:34:37.404Z,40
2017-10-18T19:44:42.547Z,40
2017-10-18T19:54:29.913Z,40
2017-10-18T20:04:29.857Z,44
2017-10-18T20:15:16.626Z,32
2017-10-18T20:24:27.899Z,26
2017-10-18T20:34:47.379Z,30
2017-10-18T20:44:31.147Z,30
2017-10-18T20:55:05.529Z,26
2017-10-18T21:04:27.819Z,42
2017-10-18T21:14:27.927Z,40
2017-10-18T21:24:28.879Z,43
2017-10-18T21:34:28.195Z,44
2017-10-18T21:44:27.989Z,39
2017-10-18T21:54:27.982Z,65
2017-10-18T22:04:28.024Z,30
2017-10-18T22:14:28.049Z,25
2017-10-18T22:24:28.014Z,24
2017-10-18T22:34:27.892Z,28
2017-10-18T22:44:27.990Z,31
2017-10-18T22:54:27.973Z,35
2017-10-18T23:04:28.033Z,25
2017-10-18T23:14:28.245Z,25
2017-10-18T23:24:28.646Z,28
2017-10-18T23:34:27.976Z,27
2017-10-18T23:44:27.628Z,33
2017-10-18T23:54:27.570Z,30
